Time;durP1;ratioP1;P1;durP2;ratioP2;P2;SDS_P1;SDS_P2;PMS_P1;PMS_P2;Temp;Humidity;BMP_temperature;BMP_pressure;BME280_temperature;BME280_humidity;BME280_pressure;Samples;Min_cycle;Max_cycle;Signal;HPM_P1;HPM_P2
2021/10/14 00:00:48;;;;;;;325.60;305.47;;;11.40;99.90;;;;;;5128325;22;20590;-82
2021/10/14 00:03:13;;;;;;;323.57;303.67;;;11.40;99.90;;;;;;5190615;22;20572;-82
2021/10/14 00:05:39;;;;;;;326.90;307.40;;;11.40;99.90;;;;;;5055542;28;20628;-83
2021/10/14 00:08:05;;;;;;;327.47;307.77;;;11.30;99.90;;;;;;5190265;22;20231;-83
2021/10/14 00:10:31;;;;;;;350.30;328.80;;;11.30;99.90;;;;;;5059467;28;20164;-82
2021/10/14 00:12:56;;;;;;;318.50;299.13;;;11.40;99.90;;;;;;5058756;28;20188;-82
2021/10/14 00:15:23;;;;;;;322.40;302.60;;;11.30;99.90;;;;;;5059382;28;20160;-82
2021/10/14 00:17:49;;;;;;;356.02;334.77;;;11.40;99.90;;;;;;5058454;28;20188;-83
2021/10/14 00:22:43;;;;;;;289.02;270.42;;;11.40;99.90;;;;;;5034789;28;20672;-82
2021/10/14 00:25:11;;;;;;;291.80;273.33;;;11.40;99.90;;;;;;5033911;28;20169;-82
2021/10/14 00:27:40;;;;;;;289.27;271.33;;;11.40;99.90;;;;;;5035350;28;20181;-82
2021/10/14 00:30:06;;;;;;;307.92;289.33;;;11.40;99.90;;;;;;5035799;28;20169;-82
2021/10/14 00:32:32;;;;;;;283.10;265.33;;;11.40;99.90;;;;;;5034995;28;20216;-82
2021/10/14 00:34:58;;;;;;;271.07;253.67;;;11.40;99.90;;;;;;5034460;28;20173;-82
2021/10/14 00:37:23;;;;;;;295.10;276.63;;;11.40;99.90;;;;;;5035859;28;20184;-82
2021/10/14 00:39:52;;;;;;;299.27;280.57;;;11.40;99.90;;;;;;5035679;28;20157;-82
2021/10/14 00:42:17;;;;;;;265.52;248.00;;;11.30;99.90;;;;;;5034886;28;20574;-83
2021/10/14 00:44:55;;;;;;;308.70;290.10;;;11.40;99.90;;;;;;5035440;28;20169;-82
2021/10/14 00:47:26;;;;;;;283.20;265.17;;;11.40;99.90;;;;;;5035736;28;20181;-82
2021/10/14 00:49:57;;;;;;;265.92;248.63;;;11.40;99.90;;;;;;5035573;28;20165;-82
2021/10/14 00:52:24;;;;;;;292.92;274.27;;;11.40;99.90;;;;;;5034053;28;20533;-82
2021/10/14 00:54:55;;;;;;;271.23;253.75;;;11.30;99.90;;;;;;5035423;28;20240;-81
2021/10/14 00:57:21;;;;;;;289.25;270.95;;;11.30;99.90;;;;;;5035778;28;20632;-82
2021/10/14 00:59:47;;;;;;;282.48;264.70;;;11.30;99.90;;;;;;5034023;28;20668;-82
2021/10/14 01:02:16;;;;;;;313.30;294.38;;;11.30;99.90;;;;;;5035225;28;20169;-82
2021/10/14 01:04:47;;;;;;;263.55;246.20;;;11.30;99.90;;;;;;5033982;28;20303;-82
2021/10/14 01:07:13;;;;;;;259.05;241.93;;;11.40;99.90;;;;;;5036644;28;20597;-82
2021/10/14 01:09:40;;;;;;;276.33;258.30;;;11.30;99.90;;;;;;5039051;28;20192;-82
2021/10/14 01:12:07;;;;;;;265.20;247.63;;;11.40;99.90;;;;;;5037252;28;20416;-82
2021/10/14 01:14:36;;;;;;;277.00;259.48;;;11.40;99.90;;;;;;5037635;28;20227;-82
2021/10/14 01:17:02;;;;;;;275.98;258.02;;;11.40;99.90;;;;;;5038491;28;20214;-82
2021/10/14 01:19:28;;;;;;;273.00;255.17;;;11.30;99.90;;;;;;5038690;28;20635;-82
2021/10/14 01:21:56;;;;;;;303.90;284.83;;;11.30;99.90;;;;;;5038554;28;20509;-82
2021/10/14 01:24:22;;;;;;;285.90;267.02;;;11.40;99.90;;;;;;5039190;28;20168;-82
2021/10/14 01:26:48;;;;;;;263.93;246.63;;;11.40;99.90;;;;;;5038554;28;20541;-82
2021/10/14 01:29:14;;;;;;;290.67;271.53;;;11.40;99.90;;;;;;5038542;28;20196;-82
2021/10/14 01:31:40;;;;;;;268.07;250.47;;;11.30;99.90;;;;;;5038418;28;20252;-82
2021/10/14 01:34:07;;;;;;;293.85;275.23;;;11.30;99.90;;;;;;5038258;28;20528;-82
2021/10/14 01:36:41;;;;;;;268.45;251.25;;;11.30;99.90;;;;;;5038515;28;20256;-82
2021/10/14 01:39:09;;;;;;;265.60;248.23;;;11.40;99.90;;;;;;5038299;28;20251;-82
2021/10/14 01:41:35;;;;;;;254.43;236.57;;;11.40;99.90;;;;;;5036905;28;20261;-82
2021/10/14 01:44:03;;;;;;;250.20;233.60;;;11.40;99.90;;;;;;5037284;28;20201;-82
2021/10/14 01:46:29;;;;;;;276.17;258.45;;;11.40;99.90;;;;;;5038821;28;20291;-82
2021/10/14 01:48:55;;;;;;;274.70;257.13;;;11.40;99.90;;;;;;5038097;28;20707;-82
2021/10/14 01:51:21;;;;;;;269.20;251.67;;;11.30;99.90;;;;;;5037911;28;20163;-82
2021/10/14 01:53:46;;;;;;;278.70;261.07;;;11.40;99.90;;;;;;5038421;28;20664;-82
2021/10/14 01:56:12;;;;;;;289.13;270.90;;;11.40;99.90;;;;;;5036168;28;20315;-82
2021/10/14 01:58:38;;;;;;;264.13;246.63;;;11.40;99.90;;;;;;5037177;28;20181;-82
2021/10/14 02:01:06;;;;;;;251.07;234.27;;;11.30;99.90;;;;;;5037698;28;20158;-82
2021/10/14 02:03:35;;;;;;;278.23;259.77;;;11.40;99.90;;;;;;5037475;28;20157;-83
2021/10/14 02:06:01;;;;;;;271.48;253.38;;;11.30;99.90;;;;;;5036052;28;20173;-82
2021/10/14 02:08:27;;;;;;;247.90;231.17;;;11.30;99.90;;;;;;5037847;28;20251;-82
2021/10/14 02:10:52;;;;;;;254.67;237.77;;;11.30;99.90;;;;;;5037326;28;20158;-82
2021/10/14 02:13:18;;;;;;;270.37;252.87;;;11.30;99.90;;;;;;5035861;28;20474;-82
2021/10/14 02:15:44;;;;;;;274.43;256.50;;;11.30;99.90;;;;;;5035863;28;20161;-82
2021/10/14 02:18:09;;;;;;;262.47;245.57;;;11.40;99.90;;;;;;5035512;28;20189;-82
2021/10/14 02:20:35;;;;;;;243.47;226.97;;;11.30;99.90;;;;;;5036187;28;20188;-82
2021/10/14 02:23:01;;;;;;;255.20;238.30;;;11.30;99.90;;;;;;5038143;28;20400;-82
2021/10/14 02:25:30;;;;;;;234.33;218.17;;;11.40;99.90;;;;;;5037865;28;20166;-81
2021/10/14 02:27:58;;;;;;;258.27;241.15;;;11.40;99.90;;;;;;5037608;28;20188;-82
2021/10/14 02:30:38;;;;;;;265.15;247.52;;;11.40;99.90;;;;;;5036498;28;20672;-82
2021/10/14 02:33:08;;;;;;;267.25;249.85;;;11.40;99.90;;;;;;5035949;28;20327;-82
2021/10/14 02:35:34;;;;;;;257.67;240.43;;;11.40;99.90;;;;;;5037560;28;20162;-82
2021/10/14 02:38:03;;;;;;;234.20;217.63;;;11.50;99.90;;;;;;5036280;28;20196;-82
2021/10/14 02:40:29;;;;;;;244.18;227.02;;;11.50;99.90;;;;;;5037554;28;20629;-82
2021/10/14 02:42:54;;;;;;;258.77;241.05;;;11.50;99.90;;;;;;5037171;28;20185;-82
2021/10/14 02:45:23;;;;;;;227.53;211.17;;;11.50;99.90;;;;;;5036287;28;20210;-82
2021/10/14 02:47:49;;;;;;;248.00;230.90;;;11.50;99.90;;;;;;5037232;28;20228;-82
2021/10/14 02:50:15;;;;;;;243.03;225.70;;;11.50;99.90;;;;;;5037527;28;20173;-81
2021/10/14 02:52:43;;;;;;;260.80;243.83;;;11.40;99.90;;;;;;5037052;28;20617;-82
2021/10/14 02:55:09;;;;;;;308.23;287.80;;;11.40;99.90;;;;;;5037727;28;20534;-82
2021/10/14 02:57:44;;;;;;;240.60;224.43;;;11.40;99.90;;;;;;5035790;28;20185;-82
2021/10/14 03:00:13;;;;;;;270.90;252.75;;;11.50;99.90;;;;;;5035982;28;20400;-82
2021/10/14 03:02:42;;;;;;;265.20;247.45;;;11.40;99.90;;;;;;5037166;28;20175;-82
2021/10/14 03:05:08;;;;;;;262.52;245.15;;;11.50;99.90;;;;;;5036115;28;20583;-82
2021/10/14 03:07:34;;;;;;;238.85;222.20;;;11.40;99.90;;;;;;5036757;28;20185;-82
2021/10/14 03:09:59;;;;;;;242.73;226.53;;;11.40;99.90;;;;;;5036984;28;20157;-82
2021/10/14 03:12:28;;;;;;;241.90;225.63;;;11.40;99.90;;;;;;5036915;28;20201;-82
2021/10/14 03:14:54;;;;;;;277.25;259.67;;;11.40;99.90;;;;;;5035851;28;20547;-83
2021/10/14 03:17:19;;;;;;;260.27;242.80;;;11.40;99.90;;;;;;5037233;28;20196;-82
2021/10/14 03:19:45;;;;;;;300.67;282.00;;;11.40;99.90;;;;;;5036710;28;20162;-82
2021/10/14 03:22:13;;;;;;;263.03;245.00;;;11.40;99.90;;;;;;5036692;28;20185;-82
2021/10/14 03:24:39;;;;;;;246.43;229.38;;;11.50;99.90;;;;;;5036924;28;20683;-82
2021/10/14 03:27:05;;;;;;;259.63;242.03;;;11.50;99.90;;;;;;5036278;28;20161;-83
2021/10/14 03:29:31;;;;;;;229.23;212.60;;;11.50;99.90;;;;;;5035858;28;20157;-82
2021/10/14 03:31:56;;;;;;;198.83;183.70;;;11.50;99.90;;;;;;5036612;28;20161;-82
2021/10/14 03:34:25;;;;;;;177.00;162.63;;;11.50;99.90;;;;;;5035272;28;20199;-82
2021/10/14 03:36:50;;;;;;;185.98;170.95;;;11.50;99.90;;;;;;5035813;28;20169;-82
2021/10/14 03:39:16;;;;;;;201.90;186.17;;;11.60;99.90;;;;;;5036916;28;20520;-82
2021/10/14 03:41:51;;;;;;;215.37;199.23;;;11.50;99.90;;;;;;5035620;28;20165;-82
2021/10/14 03:44:17;;;;;;;234.98;217.93;;;11.50;99.90;;;;;;5037277;28;20743;-82
2021/10/14 03:46:49;;;;;;;191.63;176.27;;;11.50;99.90;;;;;;5036647;28;20180;-82
2021/10/14 03:49:15;;;;;;;163.48;149.50;;;11.60;99.90;;;;;;5038206;28;20413;-81
2021/10/14 03:51:47;;;;;;;189.87;174.87;;;11.60;99.90;;;;;;5037864;28;20244;-82
2021/10/14 03:54:13;;;;;;;184.98;169.77;;;11.50;99.90;;;;;;5037234;28;20188;-82
2021/10/14 03:56:39;;;;;;;162.37;148.60;;;11.50;99.90;;;;;;5036127;28;20193;-82
2021/10/14 03:59:05;;;;;;;204.23;188.17;;;11.50;99.90;;;;;;5035176;28;20320;-82
2021/10/14 04:01:30;;;;;;;212.10;196.53;;;11.50;99.90;;;;;;5035140;28;20232;-82
2021/10/14 04:03:56;;;;;;;209.87;194.00;;;11.50;99.90;;;;;;5035840;28;20408;-82
2021/10/14 04:06:22;;;;;;;196.63;180.70;;;11.40;99.90;;;;;;5035900;28;20169;-82
2021/10/14 04:08:48;;;;;;;170.40;155.80;;;11.40;99.90;;;;;;5036571;28;20289;-82
2021/10/14 04:11:13;;;;;;;208.70;193.30;;;11.40;99.90;;;;;;5036199;28;20561;-82
2021/10/14 04:13:42;;;;;;;199.83;184.20;;;11.40;99.90;;;;;;5035017;28;20197;-82
2021/10/14 04:16:08;;;;;;;225.32;209.43;;;11.40;99.90;;;;;;5036510;28;20236;-82
2021/10/14 04:18:37;;;;;;;234.43;217.50;;;11.30;99.90;;;;;;5035716;28;20219;-82
2021/10/14 04:21:08;;;;;;;209.40;194.15;;;11.30;99.90;;;;;;5036457;28;20407;-82
2021/10/14 04:23:44;;;;;;;215.43;199.55;;;11.30;99.90;;;;;;5035430;28;20227;-82
2021/10/14 04:26:13;;;;;;;230.65;214.52;;;11.30;99.90;;;;;;5036657;28;20168;-82
2021/10/14 04:28:38;;;;;;;206.90;191.48;;;11.20;99.90;;;;;;5035170;28;20189;-82
2021/10/14 04:31:05;;;;;;;234.20;217.53;;;11.30;99.90;;;;;;5036816;28;20165;-82
2021/10/14 04:33:31;;;;;;;236.32;219.35;;;11.30;99.90;;;;;;5036526;28;20194;-82
2021/10/14 04:36:01;;;;;;;214.50;198.47;;;11.30;99.90;;;;;;5036026;28;20166;-82
2021/10/14 04:38:26;;;;;;;210.93;194.85;;;11.30;99.90;;;;;;5034473;28;20448;-82
2021/10/14 04:40:52;;;;;;;263.07;245.30;;;11.40;99.90;;;;;;5035964;28;20165;-81
2021/10/14 04:43:18;;;;;;;225.73;209.30;;;11.30;99.90;;;;;;5040302;28;20173;-82
2021/10/14 04:45:46;;;;;;;232.27;216.23;;;11.20;99.90;;;;;;5040319;28;20177;-82
2021/10/14 04:48:11;;;;;;;235.98;219.68;;;11.30;99.90;;;;;;5038625;28;20197;-82
2021/10/14 04:50:40;;;;;;;250.33;233.00;;;11.30;99.90;;;;;;5039779;28;20165;-82
2021/10/14 04:53:08;;;;;;;248.13;231.52;;;11.30;99.90;;;;;;5039088;28;20676;-82
2021/10/14 04:55:34;;;;;;;232.73;216.27;;;11.30;99.90;;;;;;5039464;28;20193;-82
2021/10/14 04:58:03;;;;;;;232.17;216.20;;;11.30;99.90;;;;;;5039554;28;20189;-82
2021/10/14 05:00:29;;;;;;;237.38;220.82;;;11.30;99.90;;;;;;5037674;28;20168;-82
2021/10/14 05:02:54;;;;;;;237.53;221.10;;;11.20;99.90;;;;;;5039215;28;20628;-82
2021/10/14 05:05:20;;;;;;;247.37;230.50;;;11.30;99.90;;;;;;5039624;28;20165;-82
2021/10/14 05:07:46;;;;;;;245.43;228.33;;;11.30;99.90;;;;;;5039390;28;20911;-82
2021/10/14 05:10:12;;;;;;;255.17;238.10;;;11.30;99.90;;;;;;5039621;28;20207;-82
2021/10/14 05:12:41;;;;;;;234.90;218.27;;;11.30;99.90;;;;;;5039095;28;20597;-82
2021/10/14 05:15:08;;;;;;;233.52;217.05;;;11.30;99.90;;;;;;5037735;28;20412;-82
2021/10/14 05:17:37;;;;;;;231.25;215.02;;;11.30;99.90;;;;;;5038956;28;20185;-82
2021/10/14 05:20:05;;;;;;;228.75;212.82;;;11.40;99.90;;;;;;5037787;28;20173;-82
2021/10/14 05:22:31;;;;;;;235.68;218.35;;;11.30;99.90;;;;;;5039023;28;20544;-82
2021/10/14 05:25:03;;;;;;;238.63;222.07;;;11.30;99.90;;;;;;5037770;28;20165;-82
2021/10/14 05:27:29;;;;;;;261.05;243.35;;;11.30;99.90;;;;;;5037633;28;20556;-82
2021/10/14 05:29:55;;;;;;;230.63;213.90;;;11.40;99.90;;;;;;5040254;28;20165;-81
2021/10/14 05:32:24;;;;;;;182.53;167.83;;;11.40;99.90;;;;;;5038814;28;20169;-82
2021/10/14 05:34:50;;;;;;;198.38;182.95;;;11.40;99.90;;;;;;5038638;28;20169;-82
2021/10/14 05:37:15;;;;;;;184.03;168.80;;;11.40;99.90;;;;;;5038524;28;20181;-82
2021/10/14 05:39:41;;;;;;;209.20;192.67;;;11.40;99.90;;;;;;5039295;28;20641;-82
2021/10/14 05:42:07;;;;;;;189.70;174.80;;;11.40;99.90;;;;;;5038247;28;20255;-82
2021/10/14 05:44:32;;;;;;;196.73;181.53;;;11.40;99.90;;;;;;5037918;28;20244;-82
2021/10/14 05:46:58;;;;;;;208.67;192.53;;;11.40;99.90;;;;;;5038343;28;20157;-82
2021/10/14 05:49:23;;;;;;;193.77;178.87;;;11.40;99.90;;;;;;5038201;28;20173;-82
2021/10/14 05:51:49;;;;;;;187.97;173.13;;;11.40;99.90;;;;;;5036595;28;20648;-82
2021/10/14 05:54:15;;;;;;;210.07;194.10;;;11.30;99.90;;;;;;5037218;28;20188;-82
2021/10/14 05:56:40;;;;;;;193.10;178.30;;;11.30;99.90;;;;;;5036563;28;20736;-82
2021/10/14 05:59:06;;;;;;;198.83;183.60;;;11.40;99.90;;;;;;5037506;28;20187;-82
2021/10/14 06:01:32;;;;;;;216.53;200.77;;;11.40;99.90;;;;;;5036239;28;20161;-82
2021/10/14 06:03:57;;;;;;;221.00;205.20;;;11.30;99.90;;;;;;5037922;28;20177;-82
2021/10/14 06:06:24;;;;;;;220.07;204.37;;;11.30;99.90;;;;;;5037759;28;20640;-82
2021/10/14 06:08:50;;;;;;;248.65;230.88;;;11.30;99.90;;;;;;5036274;28;20196;-82
2021/10/14 06:11:16;;;;;;;212.55;196.98;;;11.40;99.90;;;;;;5037855;28;20230;-83
2021/10/14 06:13:42;;;;;;;230.00;213.83;;;11.30;99.90;;;;;;5036489;28;20230;-82
2021/10/14 06:16:07;;;;;;;220.20;203.80;;;11.30;99.90;;;;;;5037643;28;20255;-83
2021/10/14 06:18:34;;;;;;;215.90;200.40;;;11.30;99.90;;;;;;5037195;28;20439;-83
2021/10/14 06:21:00;;;;;;;235.40;218.32;;;11.20;99.90;;;;;;5055836;22;20580;-82
2021/10/14 06:23:26;;;;;;;236.02;219.40;;;11.20;99.90;;;;;;5058157;28;20167;-81
2021/10/14 06:25:52;;;;;;;226.88;211.05;;;11.20;99.90;;;;;;5059800;28;20171;-82
2021/10/14 06:28:18;;;;;;;221.90;206.37;;;11.20;99.90;;;;;;5058056;28;20562;-82
2021/10/14 06:30:43;;;;;;;235.97;219.80;;;11.30;99.90;;;;;;5060100;28;20410;-82
2021/10/14 06:33:12;;;;;;;235.67;219.43;;;11.20;99.90;;;;;;5058516;28;20196;-82
2021/10/14 06:35:38;;;;;;;245.40;229.13;;;11.30;99.90;;;;;;5060806;28;20161;-82
2021/10/14 06:38:04;;;;;;;227.43;211.57;;;11.30;99.90;;;;;;5059093;28;20289;-82
2021/10/14 06:40:31;;;;;;;257.93;240.83;;;11.30;99.90;;;;;;5060488;28;20165;-82
2021/10/14 06:42:56;;;;;;;247.18;230.57;;;11.30;99.90;;;;;;5058287;28;20481;-81
2021/10/14 06:45:22;;;;;;;240.40;224.30;;;11.40;99.90;;;;;;5056899;28;20546;-82
2021/10/14 06:47:48;;;;;;;212.90;197.50;;;11.40;99.90;;;;;;5056293;28;20188;-83
2021/10/14 06:50:14;;;;;;;225.60;209.57;;;11.40;99.90;;;;;;5056116;28;20222;-81
2021/10/14 06:52:39;;;;;;;247.97;231.37;;;11.40;99.90;;;;;;5057532;28;20216;-82
2021/10/14 06:55:08;;;;;;;240.60;224.37;;;11.40;99.90;;;;;;5057932;28;20413;-82
2021/10/14 06:57:34;;;;;;;250.50;233.65;;;11.40;99.90;;;;;;5057607;28;20173;-82
2021/10/14 07:00:00;;;;;;;230.47;214.37;;;11.40;99.90;;;;;;5056442;28;20251;-82
2021/10/14 07:02:25;;;;;;;253.87;236.27;;;11.40;99.90;;;;;;5059189;28;20171;-82
2021/10/14 07:04:54;;;;;;;228.30;212.03;;;11.50;99.90;;;;;;5058774;28;20192;-83
2021/10/14 07:07:20;;;;;;;255.88;238.98;;;11.50;99.90;;;;;;5058741;28;20219;-83
2021/10/14 07:09:46;;;;;;;278.17;260.03;;;11.60;99.90;;;;;;5058383;28;20175;-82
2021/10/14 07:12:12;;;;;;;295.53;277.07;;;11.50;99.90;;;;;;5055407;28;20170;-82
2021/10/14 07:14:42;;;;;;;301.10;282.43;;;11.50;99.90;;;;;;5059916;28;20431;-82
2021/10/14 07:17:08;;;;;;;268.75;251.65;;;11.60;99.90;;;;;;5055956;28;20448;-82
2021/10/14 07:19:35;;;;;;;285.40;267.63;;;11.50;99.90;;;;;;5039404;28;20556;-82
2021/10/14 07:22:02;;;;;;;295.10;276.98;;;11.60;99.90;;;;;;5057184;28;20184;-82
2021/10/14 07:24:30;;;;;;;274.90;257.45;;;11.60;99.90;;;;;;5059614;28;20282;-82
2021/10/14 07:26:56;;;;;;;267.58;250.45;;;11.60;99.90;;;;;;5055450;28;20173;-82
2021/10/14 07:29:22;;;;;;;283.90;266.00;;;11.70;99.90;;;;;;5057978;28;20610;-83
2021/10/14 07:31:48;;;;;;;282.27;264.50;;;11.70;99.90;;;;;;5055957;28;20253;-82
2021/10/14 07:34:14;;;;;;;316.67;296.97;;;11.60;99.90;;;;;;5059289;28;20195;-82
2021/10/14 07:36:40;;;;;;;404.17;379.40;;;11.70;99.90;;;;;;5058338;28;20434;-83
2021/10/14 07:39:06;;;;;;;361.90;341.40;;;11.70;99.90;;;;;;5057922;28;20276;-83
2021/10/14 07:41:32;;;;;;;373.13;351.77;;;11.70;99.90;;;;;;5058851;28;20770;-82
2021/10/14 07:43:58;;;;;;;354.00;333.23;;;11.70;99.90;;;;;;5056886;28;20415;-82
2021/10/14 07:46:26;;;;;;;333.10;312.63;;;11.80;99.90;;;;;;5057604;28;20583;-82
2021/10/14 07:48:52;;;;;;;316.52;297.77;;;11.80;99.90;;;;;;5059105;28;20211;-83
2021/10/14 07:51:18;;;;;;;304.97;286.47;;;11.80;99.90;;;;;;5058196;28;20624;-81
2021/10/14 07:53:43;;;;;;;305.97;287.43;;;11.80;99.90;;;;;;5056177;28;20202;-82
2021/10/14 07:56:09;;;;;;;321.60;302.43;;;11.90;99.90;;;;;;5057289;28;20251;-82
2021/10/14 07:58:37;;;;;;;316.73;297.87;;;11.90;99.90;;;;;;5057391;28;20188;-82
2021/10/14 08:01:04;;;;;;;316.75;297.45;;;11.80;99.90;;;;;;5058347;28;20176;-82
2021/10/14 08:03:29;;;;;;;329.55;309.92;;;11.90;99.90;;;;;;5056534;28;20168;-82
2021/10/14 08:05:55;;;;;;;273.20;255.47;;;11.90;99.90;;;;;;5057804;28;20183;-83
2021/10/14 08:08:21;;;;;;;311.27;292.35;;;11.90;99.90;;;;;;5056006;28;20180;-82
2021/10/14 08:10:47;;;;;;;287.37;269.43;;;11.90;99.90;;;;;;5057013;28;20161;-82
2021/10/14 08:13:16;;;;;;;275.07;257.67;;;12.00;99.90;;;;;;5056420;28;20652;-82
2021/10/14 08:15:48;;;;;;;333.52;313.42;;;12.00;99.90;;;;;;5056200;28;20517;-82
2021/10/14 08:18:14;;;;;;;276.10;258.00;;;12.10;99.90;;;;;;5057936;28;20192;-82
2021/10/14 08:20:40;;;;;;;284.27;266.57;;;12.20;99.90;;;;;;5056548;28;20161;-82
2021/10/14 08:23:07;;;;;;;280.10;262.47;;;12.20;99.90;;;;;;5059847;28;20156;-82
2021/10/14 08:25:34;;;;;;;271.40;253.52;;;12.30;99.90;;;;;;5059046;28;20593;-82
2021/10/14 08:28:00;;;;;;;271.40;253.82;;;12.40;99.90;;;;;;5054532;28;20184;-82
2021/10/14 08:30:26;;;;;;;258.00;240.87;;;12.40;99.90;;;;;;5053993;28;20168;-82
2021/10/14 08:32:52;;;;;;;269.80;252.30;;;12.40;99.90;;;;;;5056120;28;20184;-81
2021/10/14 08:35:19;;;;;;;274.77;256.85;;;12.40;99.90;;;;;;5054752;28;20418;-81
2021/10/14 08:37:45;;;;;;;283.25;265.17;;;12.40;99.90;;;;;;5055086;28;20678;-83
2021/10/14 08:40:11;;;;;;;317.17;297.20;;;12.50;99.90;;;;;;5058839;28;20227;-82
2021/10/14 08:42:39;;;;;;;301.88;283.45;;;12.60;99.90;;;;;;5057313;28;20251;-82
2021/10/14 08:45:07;;;;;;;325.17;305.73;;;12.50;99.90;;;;;;5055685;28;20168;-82
2021/10/14 08:47:33;;;;;;;350.93;330.27;;;12.60;99.90;;;;;;5055282;28;20719;-83
2021/10/14 08:49:59;;;;;;;363.47;341.90;;;12.50;99.90;;;;;;5056023;28;20442;-82
2021/10/14 08:52:25;;;;;;;400.50;377.95;;;12.50;99.90;;;;;;5055405;28;20411;-82
2021/10/14 08:54:51;;;;;;;431.37;407.30;;;12.50;99.90;;;;;;5055874;28;20249;-82
2021/10/14 08:57:17;;;;;;;409.03;385.87;;;12.50;99.90;;;;;;5055706;28;20462;-82
2021/10/14 08:59:43;;;;;;;427.73;403.93;;;12.60;99.90;;;;;;5056459;28;20570;-82
2021/10/14 09:02:08;;;;;;;423.40;399.77;;;12.60;99.90;;;;;;5056677;28;20190;-82
2021/10/14 09:04:47;;;;;;;419.33;395.47;;;12.70;99.90;;;;;;5054940;28;20230;-82
2021/10/14 09:07:14;;;;;;;397.57;375.27;;;12.80;99.90;;;;;;5055448;28;20191;-83
2021/10/14 09:09:41;;;;;;;409.10;386.58;;;12.90;99.90;;;;;;5055387;28;20433;-82
2021/10/14 09:12:12;;;;;;;361.05;340.10;;;12.90;99.90;;;;;;5056637;28;20169;-82
2021/10/14 09:14:57;;;;;;;346.27;326.02;;;12.90;99.90;;;;;;5056792;28;20153;-82
2021/10/14 09:17:38;;;;;;;329.52;309.92;;;13.00;99.90;;;;;;5055960;28;20181;-82
2021/10/14 09:20:30;;;;;;;315.37;296.40;;;13.10;99.90;;;;;;5053547;28;20180;-82
2021/10/14 09:22:58;;;;;;;291.00;272.58;;;13.10;99.90;;;;;;5056120;28;20411;-82
2021/10/14 09:25:56;;;;;;;303.03;284.17;;;13.10;99.90;;;;;;5055587;28;20640;-82
2021/10/14 09:28:36;;;;;;;332.70;312.60;;;13.10;99.90;;;;;;5038972;28;20431;-83
2021/10/14 09:31:07;;;;;;;298.33;279.73;;;13.10;99.90;;;;;;5057860;28;20399;-82
2021/10/14 09:33:48;;;;;;;362.30;340.57;;;13.10;99.90;;;;;;5061552;28;20423;-82
2021/10/14 09:36:21;;;;;;;329.73;309.97;;;13.00;99.90;;;;;;5059623;28;20402;-82
2021/10/14 09:39:06;;;;;;;314.50;295.00;;;13.00;99.90;;;;;;5058609;28;20470;-82
2021/10/14 09:41:38;;;;;;;345.77;325.33;;;13.00;99.90;;;;;;5057937;28;20407;-82
2021/10/14 09:44:12;;;;;;;362.25;341.20;;;13.00;99.90;;;;;;5059160;28;20149;-82
2021/10/14 09:46:41;;;;;;;378.73;356.97;;;13.00;99.90;;;;;;5057767;28;20206;-82
2021/10/14 09:49:13;;;;;;;333.95;313.75;;;13.00;99.90;;;;;;5058886;28;20806;-82
2021/10/14 09:51:40;;;;;;;412.60;389.40;;;13.00;99.90;;;;;;5059577;28;20169;-82
2021/10/14 09:54:07;;;;;;;369.23;348.43;;;13.10;99.90;;;;;;5058632;28;20508;-82
2021/10/14 09:56:39;;;;;;;419.23;395.37;;;13.10;99.90;;;;;;5058660;28;20426;-82
2021/10/14 09:59:08;;;;;;;395.57;372.47;;;13.20;99.90;;;;;;5058182;28;20468;-82
2021/10/14 10:01:39;;;;;;;394.20;371.87;;;13.40;99.90;;;;;;5058544;28;20407;-81
2021/10/14 10:04:05;;;;;;;380.77;358.83;;;13.40;99.90;;;;;;5059604;28;20449;-82
2021/10/14 10:06:36;;;;;;;357.57;336.77;;;13.60;99.90;;;;;;5057994;28;20419;-82
2021/10/14 10:09:14;;;;;;;396.77;372.80;;;13.60;99.90;;;;;;5058638;28;20184;-82
2021/10/14 10:11:43;;;;;;;293.30;275.00;;;13.70;99.90;;;;;;5059329;28;20382;-82
2021/10/14 10:14:15;;;;;;;290.83;272.20;;;13.80;99.90;;;;;;5057884;28;21023;-83
2021/10/14 10:17:11;;;;;;;276.00;258.00;;;13.80;99.90;;;;;;5058713;28;20372;-82
2021/10/14 10:19:47;;;;;;;324.03;304.20;;;13.90;99.90;;;;;;5058169;28;20411;-82
2021/10/14 10:22:35;;;;;;;299.53;281.03;;;14.00;99.90;;;;;;5057131;28;20448;-82
2021/10/14 10:25:26;;;;;;;317.97;298.47;;;14.10;99.90;;;;;;5058472;28;20387;-81
2021/10/14 10:27:53;;;;;;;314.67;295.57;;;14.10;26.60;;;;;;5056540;28;20430;-82
2021/10/14 10:30:34;;;;;;;319.83;300.37;;;14.30;83.30;;;;;;5058120;28;20787;-82
2021/10/14 10:33:01;;;;;;;396.27;373.40;;;14.30;6.50;;;;;;5059030;28;20423;-82
2021/10/14 10:35:41;;;;;;;376.33;353.60;;;14.40;1.00;;;;;;5058485;28;20399;-82
2021/10/14 10:38:27;;;;;;;354.43;333.23;;;14.50;1.00;;;;;;5058644;28;20426;-82
2021/10/14 10:40:56;;;;;;;280.37;261.87;;;14.60;1.00;;;;;;5058804;28;20430;-82
2021/10/14 10:43:29;;;;;;;264.13;246.30;;;14.60;99.90;;;;;;5057377;28;20403;-82
2021/10/14 10:45:56;;;;;;;266.17;247.83;;;14.70;99.90;;;;;;5059103;28;20388;-82
2021/10/14 10:48:37;;;;;;;184.33;169.10;;;14.70;99.90;;;;;;5056345;28;20473;-83
2021/10/14 10:51:04;;;;;;;128.83;116.13;;;14.70;99.90;;;;;;5058043;28;20406;-82
2021/10/14 10:53:45;;;;;;;100.60;75.60;;;14.80;99.90;;;;;;5058038;28;20462;-84
2021/10/14 10:56:31;;;;;;;93.27;49.87;;;14.80;99.90;;;;;;5058888;28;20484;-82
2021/10/14 10:58:58;;;;;;;91.77;51.20;;;14.80;99.90;;;;;;5060011;28;20422;-83
2021/10/14 11:01:24;;;;;;;97.23;44.50;;;14.80;99.90;;;;;;5060530;28;20396;-82
2021/10/14 11:03:57;;;;;;;85.30;38.60;;;14.90;91.50;;;;;;5059372;28;20399;-82
2021/10/14 11:06:24;;;;;;;86.40;40.17;;;14.90;66.80;;;;;;5059174;28;20415;-83
2021/10/14 11:09:01;;;;;;;83.57;38.13;;;14.90;55.70;;;;;;5060289;28;20423;-82
2021/10/14 11:11:29;;;;;;;90.00;46.53;;;15.00;40.60;;;;;;5057102;28;20440;-82
2021/10/14 11:13:55;;;;;;;88.50;51.77;;;15.10;14.50;;;;;;5060591;28;20489;-83
2021/10/14 11:16:24;;;;;;;90.30;48.63;;;15.00;1.00;;;;;;5060008;28;20392;-82
2021/10/14 11:19:01;;;;;;;88.90;42.63;;;14.90;1.00;;;;;;5060312;28;20506;-83
2021/10/14 11:21:28;;;;;;;90.53;50.43;;;14.90;1.00;;;;;;5060154;28;20419;-82
2021/10/14 11:23:56;;;;;;;87.40;45.47;;;14.90;1.00;;;;;;5058949;28;20414;-83
2021/10/14 11:26:38;;;;;;;85.90;43.57;;;14.90;1.00;;;;;;5060951;28;20423;-82
2021/10/14 11:29:10;;;;;;;91.90;52.50;;;15.00;1.00;;;;;;5058616;28;20430;-83
2021/10/14 11:32:00;;;;;;;91.50;60.13;;;14.90;1.00;;;;;;5059841;28;20403;-82
2021/10/14 11:34:27;;;;;;;92.40;65.00;;;14.90;1.00;;;;;;5060822;28;20427;-82
2021/10/14 11:37:02;;;;;;;94.73;63.30;;;14.80;1.00;;;;;;5060410;28;20992;-83
2021/10/14 11:39:38;;;;;;;89.47;57.90;;;14.90;1.00;;;;;;5057115;28;20445;-83
2021/10/14 11:42:04;;;;;;;92.87;61.10;;;14.90;1.00;;;;;;5057411;28;20379;-83
2021/10/14 11:44:33;;;;;;;100.50;72.80;;;15.00;1.00;;;;;;5057259;28;20414;-82
2021/10/14 11:47:00;;;;;;;96.07;72.93;;;15.00;1.00;;;;;;5060237;28;20403;-82
2021/10/14 11:49:27;;;;;;;105.80;86.67;;;15.00;1.00;;;;;;5060737;28;20435;-82
2021/10/14 11:52:03;;;;;;;102.40;76.83;;;15.00;1.00;;;;;;5060449;28;20426;-82
2021/10/14 11:54:32;;;;;;;98.47;82.70;;;14.90;1.00;;;;;;5057778;28;20489;-83
2021/10/14 11:56:58;;;;;;;108.33;96.77;;;15.00;1.00;;;;;;5060851;28;20945;-80
2021/10/14 11:59:27;;;;;;;94.60;76.07;;;15.00;1.00;;;;;;5056309;28;20430;-83
2021/10/14 12:02:08;;;;;;;93.77;74.17;;;14.90;1.00;;;;;;5057382;28;20409;-82
2021/10/14 12:04:43;;;;;;;103.83;92.73;;;14.90;1.00;;;;;;5057449;28;20882;-82
2021/10/14 12:07:15;;;;;;;98.33;82.90;;;14.90;1.00;;;;;;5056969;28;20398;-83
2021/10/14 12:09:41;;;;;;;109.23;97.93;;;14.90;1.00;;;;;;5060417;28;20724;-82
2021/10/14 12:12:07;;;;;;;116.10;104.43;;;15.00;1.00;;;;;;5057969;28;20440;-83
2021/10/14 12:14:38;;;;;;;126.13;113.87;;;14.90;1.00;;;;;;5057632;28;20447;-82
2021/10/14 12:17:10;;;;;;;116.43;104.77;;;15.00;1.00;;;;;;5060532;28;20387;-84
2021/10/14 12:19:40;;;;;;;133.33;120.67;;;15.00;1.00;;;;;;5055361;28;20412;-82